International Virtual Aviation Organisation

Russian Federation and Kazakhstan MCD

 
ULAA 191630Z 18002MPS 140V210 9999 BKN023 18/15 Q1014 R08/CLRD68 NOSIG RMK QFE760/1013
QNH:(hPa/inHg/mmHg)1014 / 29.94 / 761
QFE:(hPa/inHg/mmHg)1012 / 29.88 / 759
Temperature18
Dew Point15
Visibility> 10000
Weather
Cloud CoverBKN (2300);
Transition Height800 m./2700 ft.
Transition LevelFL40
SQUAWK